Rosehearty — MMZC2 — position and weather

sailwx.info

Track history (hours):
 
Tides and Currents Weather Stations Pressure Air Temp Water Temp Dewpoint Dewpoint Depression Visibility Wind Speed Wind Dir Waves Ship Positions

Rosehearty

Last reported at 2018-Apr-21 22:10 UTC. Time now 2018-Aug-19 23:13 UTC.
Position N 09°13' W 079°55'.
Warning: this ship's position is months out of date.

Length 56 m; draft 10 m.

Type: Sailing vessel. MMSI: 235011240.

Date/timePositionNaut miles runAvg speedWind from/ knotsBaromVisibWave heightAir tempDewpointWater temp
2018-Apr-21 22:10N 09°13' W 079°55'210.7
2018-Apr-21 21:59N 09°15' W 079°55'2 1.3
2018-Apr-21 20:22N 09°17' W 079°55'1 1.5
2018-Apr-21 20:00N 09°18' W 079°55'3 5.5
2018-Apr-21 19:31N 09°21' W 079°55'0 0.0
2018-Apr-21 19:00N 09°21' W 079°55'0 0.0
2018-Apr-21 18:30N 09°21' W 079°55'0 0.0
2018-Apr-21 18:00N 09°21' W 079°55'0 0.0
2018-Apr-21 17:30N 09°21' W 079°55'0 0.0
2018-Apr-21 17:00N 09°21' W 079°55'0 0.0
2018-Apr-21 16:30N 09°21' W 079°55'0 0.0
2018-Apr-21 16:00N 09°21' W 079°55'0 0.0
2018-Apr-21 15:27N 09°21' W 079°55'1 1.9
2018-Apr-21 15:00N 09°21' W 079°55'2 3.2
2018-Apr-21 14:30N 09°22' W 079°57'0 0.7
2018-Apr-21 14:00N 09°22' W 079°57'0 0.0
2018-Apr-21 13:30N 09°22' W 079°57'0 0.0
2018-Apr-21 13:00N 09°22' W 079°57'0 0.0
2018-Apr-21 12:30N 09°22' W 079°57'0 0.0
2018-Apr-21 12:00N 09°22' W 079°57'0 0.0
2018-Apr-21 11:30N 09°22' W 079°57'0 0.0
2018-Apr-21 11:00N 09°22' W 079°57'0 0.0
2018-Apr-21 10:30N 09°22' W 079°57'0 0.0
2018-Apr-21 10:00N 09°22' W 079°57'0 0.0
2018-Apr-21 09:30N 09°22' W 079°57'0 0.0
2018-Apr-21 09:00N 09°22' W 079°57'0 0.0
2018-Apr-21 08:30N 09°22' W 079°57'0 0.0
2018-Apr-21 08:00N 09°22' W 079°57'0 0.0
2018-Apr-21 07:30N 09°22' W 079°57'0 0.0
2018-Apr-21 07:00N 09°22' W 079°57'0 0.0
2018-Apr-21 06:30N 09°22' W 079°57'0 0.0
2018-Apr-21 06:00N 09°22' W 079°57'0 0.0
2018-Apr-21 05:30N 09°22' W 079°57'0 0.0
2018-Apr-21 05:00N 09°22' W 079°57'0 0.0
2018-Apr-21 04:30N 09°22' W 079°57'0 0.0
2018-Apr-21 04:00N 09°22' W 079°57'0 0.0
2018-Apr-21 03:30N 09°22' W 079°57'0 0.0
2018-Apr-21 03:00N 09°22' W 079°57'0 0.0
2018-Apr-21 02:30N 09°22' W 079°57'0 0.0
2018-Apr-21 01:59N 09°22' W 079°57'0 0.0
2018-Apr-21 01:30N 09°22' W 079°57'0 0.0
2018-Apr-21 01:00N 09°22' W 079°57'0 0.0
2018-Apr-21 00:30N 09°22' W 079°57'0 0.0
2018-Apr-21 00:00N 09°22' W 079°57'0 0.0
2018-Apr-20 23:30N 09°22' W 079°57'0 0.0
2018-Apr-20 23:00N 09°22' W 079°57'0 0.0
2018-Apr-20 22:30N 09°22' W 079°57'0 0.0
2018-Apr-20 22:00N 09°22' W 079°57'0 0.0
2018-Apr-20 21:30N 09°22' W 079°57'0 0.0
2018-Apr-20 21:00N 09°22' W 079°57'0 0.0
2018-Apr-20 20:30N 09°22' W 079°57'0 0.0
2018-Apr-20 19:59N 09°22' W 079°57'0 0.0
2018-Apr-20 19:30N 09°22' W 079°57'0 0.0
2018-Apr-20 19:00N 09°22' W 079°57'0 0.0
2018-Apr-20 18:30N 09°22' W 079°57'0 0.0
2018-Apr-20 18:00N 09°22' W 079°57'0 0.0
2018-Apr-20 17:30N 09°22' W 079°57'0 0.0
2018-Apr-20 17:00N 09°22' W 079°57'0 0.0
2018-Apr-20 16:30N 09°22' W 079°57'0 0.0
2018-Apr-20 15:59N 09°22' W 079°57'0 0.0
2018-Apr-20 15:30N 09°22' W 079°57'0 0.0
2018-Apr-20 15:00N 09°22' W 079°57'0 0.0
2018-Apr-20 14:30N 09°22' W 079°57'0 0.0
2018-Apr-20 14:00N 09°22' W 079°57'0 0.0
2018-Apr-20 13:30N 09°22' W 079°57'0 0.0
2018-Apr-20 13:00N 09°22' W 079°57'0 0.0
2018-Apr-20 12:30N 09°22' W 079°57'0 0.0
2018-Apr-20 12:00N 09°22' W 079°57'0 0.0
2018-Apr-20 11:30N 09°22' W 079°57'0 0.0
2018-Apr-20 11:00N 09°22' W 079°57'0 0.0
2018-Apr-20 10:30N 09°22' W 079°57'0 0.0
2018-Apr-20 10:00N 09°22' W 079°57'0 0.0
2018-Apr-20 09:30N 09°22' W 079°57'0 0.0
2018-Apr-20 09:00N 09°22' W 079°57'0 0.0
2018-Apr-20 08:30N 09°22' W 079°57'0 0.0
2018-Apr-20 08:00N 09°22' W 079°57'0 0.0
2018-Apr-20 07:30N 09°22' W 079°57'0 0.0
2018-Apr-20 07:00N 09°22' W 079°57'0 0.0
2018-Apr-20 06:30N 09°22' W 079°57'0 0.0
2018-Apr-20 06:00N 09°22' W 079°57'0 0.0
2018-Apr-20 05:30N 09°22' W 079°57'0 0.0
2018-Apr-20 05:00N 09°22' W 079°57'0 0.0
2018-Apr-20 04:30N 09°22' W 079°57'0 0.0
2018-Apr-20 04:00N 09°22' W 079°57'0 0.0
2018-Apr-20 03:30N 09°22' W 079°57'0 0.0
2018-Apr-20 03:00N 09°22' W 079°57'0 0.0
2018-Apr-20 02:30N 09°22' W 079°57'0 0.0
2018-Apr-20 02:00N 09°22' W 079°57'0 0.0
2018-Apr-20 01:30N 09°22' W 079°57'0 0.0
2018-Apr-20 01:00N 09°22' W 079°57'0 0.0
2018-Apr-20 00:30N 09°22' W 079°57'0 0.0
2018-Apr-20 00:00N 09°22' W 079°57'0 0.0
2018-Apr-19 23:30N 09°22' W 079°57'0 0.0
2018-Apr-19 23:00N 09°22' W 079°57'0 0.0
2018-Apr-19 22:30N 09°22' W 079°57'0 0.0
2018-Apr-19 22:00N 09°22' W 079°57'0 0.0
2018-Apr-19 21:30N 09°22' W 079°57'0 0.0
2018-Apr-19 21:00N 09°22' W 079°57'0 0.0
2018-Apr-19 20:30N 09°22' W 079°57'0 0.0
2018-Apr-19 20:00N 09°22' W 079°57'0 0.0
2018-Apr-19 19:30N 09°22' W 079°57'0 0.0
2018-Apr-19 19:00N 09°22' W 079°57'0 0.0
2018-Apr-19 18:30N 09°22' W 079°57'0 0.0
2018-Apr-19 18:00N 09°22' W 079°57'0 0.0
2018-Apr-19 17:30N 09°22' W 079°57'0 0.0
2018-Apr-19 17:00N 09°22' W 079°57'0 0.0
2018-Apr-19 16:30N 09°22' W 079°57'0 0.0
2018-Apr-19 16:00N 09°22' W 079°57'0 0.0
2018-Apr-19 15:30N 09°22' W 079°57'0 0.0
2018-Apr-19 15:00N 09°22' W 079°57'0 0.0
2018-Apr-19 14:30N 09°22' W 079°57'0 0.0
2018-Apr-19 14:00N 09°22' W 079°57'0 0.0
2018-Apr-19 13:30N 09°22' W 079°57'0 0.0
2018-Apr-19 13:00N 09°22' W 079°57'0 0.0
2018-Apr-19 12:29N 09°22' W 079°57'0 0.0
2018-Apr-19 12:00N 09°22' W 079°57'0 0.0
2018-Apr-19 11:30N 09°22' W 079°57'0 0.0
2018-Apr-19 11:00N 09°22' W 079°57'0 0.0
2018-Apr-19 10:30N 09°22' W 079°57'0 0.0
2018-Apr-19 09:59N 09°22' W 079°57'0 0.0
2018-Apr-19 09:30N 09°22' W 079°57'0 0.0
2018-Apr-19 09:00N 09°22' W 079°57'0 0.0
2018-Apr-19 08:30N 09°22' W 079°57'0 0.0
2018-Apr-19 08:00N 09°22' W 079°57'0 0.0
2018-Apr-19 07:30N 09°22' W 079°57'0 0.0
2018-Apr-19 07:00N 09°22' W 079°57'0 0.0
2018-Apr-19 06:30N 09°22' W 079°57'0 0.0
2018-Apr-19 06:00N 09°22' W 079°57'0 0.0
2018-Apr-19 05:30N 09°22' W 079°57'0 0.0
2018-Apr-19 05:00N 09°22' W 079°57'0 0.0
2018-Apr-19 04:30N 09°22' W 079°57'0 0.0
2018-Apr-19 04:00N 09°22' W 079°57'0 0.0
2018-Apr-19 03:30N 09°22' W 079°57'0 0.0
2018-Apr-19 03:00N 09°22' W 079°57'0 0.0
2018-Apr-19 02:30N 09°22' W 079°57'0 0.0
2018-Apr-19 02:00N 09°22' W 079°57'0 0.0
2018-Apr-19 01:30N 09°22' W 079°57'0 0.0
2018-Apr-19 01:00N 09°22' W 079°57'0 0.0
2018-Apr-19 00:30N 09°22' W 079°57'0 0.0
2018-Apr-19 00:00N 09°22' W 079°57'0 0.0
2018-Apr-18 23:30N 09°22' W 079°57'0 0.0
2018-Apr-18 23:00N 09°22' W 079°57'0 0.0
2018-Apr-18 22:30N 09°22' W 079°57'0 0.0
2018-Apr-18 22:00N 09°22' W 079°57'0 0.0
2018-Apr-18 21:30N 09°22' W 079°57'0 0.0
2018-Apr-18 21:00N 09°22' W 079°57'0 0.0
2018-Apr-18 20:30N 09°22' W 079°57'0 0.0
2018-Apr-18 20:00N 09°22' W 079°57'0 0.0
2018-Apr-18 19:30N 09°22' W 079°57'0 0.0
2018-Apr-18 19:00N 09°22' W 079°57'0 0.0
2018-Apr-18 18:30N 09°22' W 079°57'0 0.0
2018-Apr-18 18:00N 09°22' W 079°57'0 0.0
2018-Apr-18 17:30N 09°22' W 079°57'0 0.0
2018-Apr-18 17:00N 09°22' W 079°57'0 0.0
2018-Apr-18 16:30N 09°22' W 079°57'0 0.0
2018-Apr-18 16:00N 09°22' W 079°57'0 0.0
2018-Apr-18 15:30N 09°22' W 079°57'0 0.0
2018-Apr-18 15:00N 09°22' W 079°57'0 0.0
2018-Apr-18 14:30N 09°22' W 079°57'0 0.0
2018-Apr-18 14:00N 09°22' W 079°57'0 0.0
2018-Apr-18 13:30N 09°22' W 079°57'0 0.0
2018-Apr-18 13:00N 09°22' W 079°57'0 0.0
2018-Apr-18 12:30N 09°22' W 079°57'0 0.0
2018-Apr-18 12:00N 09°22' W 079°57'0 0.0
2018-Apr-18 11:30N 09°22' W 079°57'0 0.0
2018-Apr-18 11:00N 09°22' W 079°57'0 0.0
2018-Apr-18 10:30N 09°22' W 079°57'0 0.0
2018-Apr-18 10:00N 09°22' W 079°57'0 0.0
2018-Apr-18 09:30N 09°22' W 079°57'0 0.0
2018-Apr-18 09:00N 09°22' W 079°57'0 0.0
2018-Apr-18 08:30N 09°22' W 079°57'0 0.0
2018-Apr-18 08:00N 09°22' W 079°57'0 0.0
2018-Apr-18 07:30N 09°22' W 079°57'0 0.0
2018-Apr-18 07:00N 09°22' W 079°57'0 0.0
2018-Apr-18 06:30N 09°22' W 079°57'0 0.0
2018-Apr-18 06:00N 09°22' W 079°57'0 0.0
2018-Apr-18 05:30N 09°22' W 079°57'0 0.0
2018-Apr-18 05:00N 09°22' W 079°57'0 0.0
2018-Apr-18 04:30N 09°22' W 079°57'0 0.0
2018-Apr-18 04:00N 09°22' W 079°57'0 0.0
2018-Apr-18 03:28N 09°22' W 079°57'0 0.0
2018-Apr-18 03:00N 09°22' W 079°57'0 0.0
2018-Apr-18 02:30N 09°22' W 079°57'0 0.0
2018-Apr-18 02:00N 09°22' W 079°57'0 0.0
2018-Apr-18 01:30N 09°22' W 079°57'0 0.0
2018-Apr-18 01:00N 09°22' W 079°57'0 0.0
2018-Apr-18 00:30N 09°22' W 079°57'0 0.0
2018-Apr-18 00:00N 09°22' W 079°57'0 0.0
2018-Apr-17 23:30N 09°22' W 079°57'0 0.0
2018-Apr-17 23:00N 09°22' W 079°57'0 0.0
2018-Apr-17 22:30N 09°22' W 079°57'0 0.0
2018-Apr-17 22:00N 09°22' W 079°57'0 0.0
2018-Apr-17 21:30N 09°22' W 079°57'0 0.0
2018-Apr-17 21:00N 09°22' W 079°57'0 0.0
2018-Apr-17 20:30N 09°22' W 079°57'0 0.0
2018-Apr-17 20:00N 09°22' W 079°57'0 0.0
2018-Apr-17 19:30N 09°22' W 079°57'0 0.0
2018-Apr-17 19:00N 09°22' W 079°57'0 0.0
2018-Apr-17 18:30N 09°22' W 079°57'0 0.0
2018-Apr-17 18:00N 09°22' W 079°57'0 0.0
2018-Apr-17 17:30N 09°22' W 079°57'0 0.0
2018-Apr-17 17:00N 09°22' W 079°57'0 0.0
2018-Apr-17 16:30N 09°22' W 079°57'0 0.0
2018-Apr-17 16:00N 09°22' W 079°57'0 0.0
2018-Apr-17 15:30N 09°22' W 079°57'0 0.0
2018-Apr-17 15:00N 09°22' W 079°57'0 0.0
2018-Apr-17 14:30N 09°22' W 079°57'0 0.0
2018-Apr-17 14:00N 09°22' W 079°57'0 0.0
2018-Apr-17 13:30N 09°22' W 079°57'0 0.0
2018-Apr-17 13:00N 09°22' W 079°57'0 0.0
2018-Apr-17 12:30N 09°22' W 079°57'0 0.0
2018-Apr-17 12:00N 09°22' W 079°57'0 0.0
2018-Apr-17 11:30N 09°22' W 079°57'0 0.0
2018-Apr-17 11:00N 09°22' W 079°57'0 0.0
2018-Apr-17 10:30N 09°22' W 079°57'0 0.0
2018-Apr-17 10:00N 09°22' W 079°57'0 0.0
2018-Apr-17 09:30N 09°22' W 079°57'0 0.0
2018-Apr-17 09:00N 09°22' W 079°57'0 0.0
2018-Apr-17 08:30N 09°22' W 079°57'0 0.0
2018-Apr-17 08:00N 09°22' W 079°57'0 0.0
2018-Apr-17 07:30N 09°22' W 079°57'0 0.0
2018-Apr-17 07:00N 09°22' W 079°57'0 0.0
2018-Apr-17 06:30N 09°22' W 079°57'0 0.0
2018-Apr-17 06:00N 09°22' W 079°57'0 0.0
2018-Apr-17 05:30N 09°22' W 079°57'0 0.0
2018-Apr-17 05:00N 09°22' W 079°57'0 0.0
2018-Apr-17 04:30N 09°22' W 079°57'0 0.0
2018-Apr-17 04:00N 09°22' W 079°57'0 0.0
2018-Apr-17 03:30N 09°22' W 079°57'0 0.0
2018-Apr-17 03:00N 09°22' W 079°57'0 0.0
2018-Apr-17 02:30N 09°22' W 079°57'0 0.0
2018-Apr-17 02:00N 09°22' W 079°57'0 0.0
2018-Apr-17 01:30N 09°22' W 079°57'0 0.0
2018-Apr-17 01:00N 09°22' W 079°57'0 0.0
2018-Apr-17 00:30N 09°22' W 079°57'0 0.0
2018-Apr-17 00:00N 09°22' W 079°57'0 0.0
2018-Apr-16 23:30N 09°22' W 079°57'0 0.0
2018-Apr-16 23:00N 09°22' W 079°57'0 0.0
2018-Apr-16 22:30N 09°22' W 079°57'0 0.0
2018-Apr-16 22:00N 09°22' W 079°57'0 0.0
2018-Apr-16 21:30N 09°22' W 079°57'0 0.0
2018-Apr-16 21:00N 09°22' W 079°57'0 0.0
2018-Apr-16 20:30N 09°22' W 079°57'0 0.0
2018-Apr-16 20:00N 09°22' W 079°57'0 0.0
2018-Apr-16 19:30N 09°22' W 079°57'0 0.0
2018-Apr-16 19:00N 09°22' W 079°57'0 0.0
2018-Apr-16 18:30N 09°22' W 079°57'0 0.0
2018-Apr-16 18:00N 09°22' W 079°57'0 0.0
2018-Apr-16 17:29N 09°22' W 079°57'0 0.0
2018-Apr-16 17:00N 09°22' W 079°57'0 0.0
2018-Apr-16 16:30N 09°22' W 079°57'0 0.0
2018-Apr-16 16:00N 09°22' W 079°57'0 0.0
2018-Apr-16 15:30N 09°22' W 079°57'0 0.0
2018-Apr-16 15:00N 09°22' W 079°57'0 0.2
2018-Apr-16 14:30N 09°22' W 079°57'2 4.4
2018-Apr-16 14:00N 09°24' W 079°55'4 8.2
2018-Apr-16 13:30N 09°28' W 079°55'1312.8
2018-Apr-16 12:28N 09°41' W 079°51'  
2018-Apr-12 18:45N 16°45' W 062°35'312.0
2018-Apr-12 18:28N 16°46' W 062°31'612.2
2018-Apr-12 18:00N 16°48' W 062°26'612.2
2018-Apr-12 17:30N 16°51' W 062°20'612.2
2018-Apr-12 17:00N 16°53' W 062°14'612.7
2018-Apr-12 16:30N 16°55' W 062°08'612.7
2018-Apr-12 16:00N 16°56' W 062°01'612.5
2018-Apr-12 15:30N 16°58' W 061°55'612.3
2018-Apr-12 15:00N 16°59' W 061°49'3 4.7
2018-Apr-12 14:28N 17°01' W 061°46'0 0.0
2018-Apr-12 13:58N 17°01' W 061°46'0 0.0
2018-Apr-12 13:28N 17°01' W 061°46'0 0.0
2018-Apr-12 12:58N 17°01' W 061°46'0 0.0
2018-Apr-12 12:28N 17°01' W 061°46'0 0.0
2018-Apr-12 11:58N 17°01' W 061°46'0 0.0
2018-Apr-12 11:28N 17°01' W 061°46'0 0.0
2018-Apr-12 11:01N 17°01' W 061°46'0 0.0
2018-Apr-12 10:30N 17°01' W 061°46'0 0.0
2018-Apr-12 10:00N 17°01' W 061°46'0 0.0
2018-Apr-12 09:30N 17°01' W 061°46'0 0.0
2018-Apr-12 09:00N 17°01' W 061°46'0 0.0
2018-Apr-12 08:30N 17°01' W 061°46'0 0.0
2018-Apr-12 08:00N 17°01' W 061°46'0 0.0
2018-Apr-12 07:30N 17°01' W 061°46'0 0.0
2018-Apr-12 07:00N 17°01' W 061°46'0 0.0
2018-Apr-12 06:30N 17°01' W 061°46'0 0.0
2018-Apr-12 06:00N 17°01' W 061°46'0 0.0
2018-Apr-12 05:30N 17°01' W 061°46'0 0.0
2018-Apr-12 05:00N 17°01' W 061°46'0 0.0
2018-Apr-12 04:30N 17°01' W 061°46'0 0.0
2018-Apr-12 04:00N 17°01' W 061°46'0 0.0
2018-Apr-12 03:30N 17°01' W 061°46'0 0.0
2018-Apr-12 03:00N 17°01' W 061°46'0 0.0
2018-Apr-12 02:30N 17°01' W 061°46'0 0.0
2018-Apr-12 02:00N 17°01' W 061°46'0 0.0
2018-Apr-12 01:30N 17°01' W 061°46'0 0.0
2018-Apr-12 01:00N 17°01' W 061°46'0 0.0
2018-Apr-12 00:30N 17°01' W 061°46'0 0.0
2018-Apr-12 00:00N 17°01' W 061°46'0 0.0
2018-Apr-11 23:30N 17°01' W 061°46'0 0.0
2018-Apr-11 23:00N 17°01' W 061°46'0 0.0
2018-Apr-11 22:30N 17°01' W 061°46'  
Track history (hours):
 
Tides and Currents Weather Stations Pressure Air Temp Water Temp Dewpoint Dewpoint Depression Visibility Wind Speed Wind Dir Waves Ship Positions

Rosehearty

Last reported at 2018-Apr-21 22:10 UTC. Time now 2018-Aug-19 23:13 UTC.
Position N 09°13' W 079°55'.
Warning: this ship's position is months out of date.

Length 56 m; draft 10 m.

Type: Sailing vessel. MMSI: 235011240.

Date/timePositionNaut miles runAvg speedWind from/ knotsBaromVisibWave heightAir tempDewpointWater temp
2018-Apr-21 22:10N 09°13' W 079°55'210.7
2018-Apr-21 21:59N 09°15' W 079°55'2 1.3
2018-Apr-21 20:22N 09°17' W 079°55'1 1.5
2018-Apr-21 20:00N 09°18' W 079°55'3 5.5
2018-Apr-21 19:31N 09°21' W 079°55'0 0.0
2018-Apr-21 19:00N 09°21' W 079°55'0 0.0
2018-Apr-21 18:30N 09°21' W 079°55'0 0.0
2018-Apr-21 18:00N 09°21' W 079°55'0 0.0
2018-Apr-21 17:30N 09°21' W 079°55'0 0.0
2018-Apr-21 17:00N 09°21' W 079°55'0 0.0
2018-Apr-21 16:30N 09°21' W 079°55'0 0.0
2018-Apr-21 16:00N 09°21' W 079°55'0 0.0
2018-Apr-21 15:27N 09°21' W 079°55'1 1.9
2018-Apr-21 15:00N 09°21' W 079°55'2 3.2
2018-Apr-21 14:30N 09°22' W 079°57'0 0.7
2018-Apr-21 14:00N 09°22' W 079°57'0 0.0
2018-Apr-21 13:30N 09°22' W 079°57'0 0.0
2018-Apr-21 13:00N 09°22' W 079°57'0 0.0
2018-Apr-21 12:30N 09°22' W 079°57'0 0.0
2018-Apr-21 12:00N 09°22' W 079°57'0 0.0
2018-Apr-21 11:30N 09°22' W 079°57'0 0.0
2018-Apr-21 11:00N 09°22' W 079°57'0 0.0
2018-Apr-21 10:30N 09°22' W 079°57'0 0.0
2018-Apr-21 10:00N 09°22' W 079°57'0 0.0
2018-Apr-21 09:30N 09°22' W 079°57'0 0.0
2018-Apr-21 09:00N 09°22' W 079°57'0 0.0
2018-Apr-21 08:30N 09°22' W 079°57'0 0.0
2018-Apr-21 08:00N 09°22' W 079°57'0 0.0
2018-Apr-21 07:30N 09°22' W 079°57'0 0.0
2018-Apr-21 07:00N 09°22' W 079°57'0 0.0
2018-Apr-21 06:30N 09°22' W 079°57'0 0.0
2018-Apr-21 06:00N 09°22' W 079°57'0 0.0
2018-Apr-21 05:30N 09°22' W 079°57'0 0.0
2018-Apr-21 05:00N 09°22' W 079°57'0 0.0
2018-Apr-21 04:30N 09°22' W 079°57'0 0.0
2018-Apr-21 04:00N 09°22' W 079°57'0 0.0
2018-Apr-21 03:30N 09°22' W 079°57'0 0.0
2018-Apr-21 03:00N 09°22' W 079°57'0 0.0
2018-Apr-21 02:30N 09°22' W 079°57'0 0.0
2018-Apr-21 01:59N 09°22' W 079°57'0 0.0
2018-Apr-21 01:30N 09°22' W 079°57'0 0.0
2018-Apr-21 01:00N 09°22' W 079°57'0 0.0
2018-Apr-21 00:30N 09°22' W 079°57'0 0.0
2018-Apr-21 00:00N 09°22' W 079°57'0 0.0
2018-Apr-20 23:30N 09°22' W 079°57'0 0.0
2018-Apr-20 23:00N 09°22' W 079°57'0 0.0
2018-Apr-20 22:30N 09°22' W 079°57'0 0.0
2018-Apr-20 22:00N 09°22' W 079°57'0 0.0
2018-Apr-20 21:30N 09°22' W 079°57'0 0.0
2018-Apr-20 21:00N 09°22' W 079°57'0 0.0
2018-Apr-20 20:30N 09°22' W 079°57'0 0.0
2018-Apr-20 19:59N 09°22' W 079°57'0 0.0
2018-Apr-20 19:30N 09°22' W 079°57'0 0.0
2018-Apr-20 19:00N 09°22' W 079°57'0 0.0
2018-Apr-20 18:30N 09°22' W 079°57'0 0.0
2018-Apr-20 18:00N 09°22' W 079°57'0 0.0
2018-Apr-20 17:30N 09°22' W 079°57'0 0.0
2018-Apr-20 17:00N 09°22' W 079°57'0 0.0
2018-Apr-20 16:30N 09°22' W 079°57'0 0.0
2018-Apr-20 15:59N 09°22' W 079°57'0 0.0
2018-Apr-20 15:30N 09°22' W 079°57'0 0.0
2018-Apr-20 15:00N 09°22' W 079°57'0 0.0
2018-Apr-20 14:30N 09°22' W 079°57'0 0.0
2018-Apr-20 14:00N 09°22' W 079°57'0 0.0
2018-Apr-20 13:30N 09°22' W 079°57'0 0.0
2018-Apr-20 13:00N 09°22' W 079°57'0 0.0
2018-Apr-20 12:30N 09°22' W 079°57'0 0.0
2018-Apr-20 12:00N 09°22' W 079°57'0 0.0
2018-Apr-20 11:30N 09°22' W 079°57'0 0.0
2018-Apr-20 11:00N 09°22' W 079°57'0 0.0
2018-Apr-20 10:30N 09°22' W 079°57'0 0.0
2018-Apr-20 10:00N 09°22' W 079°57'0 0.0
2018-Apr-20 09:30N 09°22' W 079°57'0 0.0
2018-Apr-20 09:00N 09°22' W 079°57'0 0.0
2018-Apr-20 08:30N 09°22' W 079°57'0 0.0
2018-Apr-20 08:00N 09°22' W 079°57'0 0.0
2018-Apr-20 07:30N 09°22' W 079°57'0 0.0
2018-Apr-20 07:00N 09°22' W 079°57'0 0.0
2018-Apr-20 06:30N 09°22' W 079°57'0 0.0
2018-Apr-20 06:00N 09°22' W 079°57'0 0.0
2018-Apr-20 05:30N 09°22' W 079°57'0 0.0
2018-Apr-20 05:00N 09°22' W 079°57'0 0.0
2018-Apr-20 04:30N 09°22' W 079°57'0 0.0
2018-Apr-20 04:00N 09°22' W 079°57'0 0.0
2018-Apr-20 03:30N 09°22' W 079°57'0 0.0
2018-Apr-20 03:00N 09°22' W 079°57'0 0.0
2018-Apr-20 02:30N 09°22' W 079°57'0 0.0
2018-Apr-20 02:00N 09°22' W 079°57'0 0.0
2018-Apr-20 01:30N 09°22' W 079°57'0 0.0
2018-Apr-20 01:00N 09°22' W 079°57'0 0.0
2018-Apr-20 00:30N 09°22' W 079°57'0 0.0
2018-Apr-20 00:00N 09°22' W 079°57'0 0.0
2018-Apr-19 23:30N 09°22' W 079°57'0 0.0
2018-Apr-19 23:00N 09°22' W 079°57'0 0.0
2018-Apr-19 22:30N 09°22' W 079°57'0 0.0
2018-Apr-19 22:00N 09°22' W 079°57'0 0.0
2018-Apr-19 21:30N 09°22' W 079°57'0 0.0
2018-Apr-19 21:00N 09°22' W 079°57'0 0.0
2018-Apr-19 20:30N 09°22' W 079°57'0 0.0
2018-Apr-19 20:00N 09°22' W 079°57'0 0.0
2018-Apr-19 19:30N 09°22' W 079°57'0 0.0
2018-Apr-19 19:00N 09°22' W 079°57'0 0.0
2018-Apr-19 18:30N 09°22' W 079°57'0 0.0
2018-Apr-19 18:00N 09°22' W 079°57'0 0.0
2018-Apr-19 17:30N 09°22' W 079°57'0 0.0
2018-Apr-19 17:00N 09°22' W 079°57'0 0.0
2018-Apr-19 16:30N 09°22' W 079°57'0 0.0
2018-Apr-19 16:00N 09°22' W 079°57'0 0.0
2018-Apr-19 15:30N 09°22' W 079°57'0 0.0
2018-Apr-19 15:00N 09°22' W 079°57'0 0.0
2018-Apr-19 14:30N 09°22' W 079°57'0 0.0
2018-Apr-19 14:00N 09°22' W 079°57'0 0.0
2018-Apr-19 13:30N 09°22' W 079°57'0 0.0
2018-Apr-19 13:00N 09°22' W 079°57'0 0.0
2018-Apr-19 12:29N 09°22' W 079°57'0 0.0
2018-Apr-19 12:00N 09°22' W 079°57'0 0.0
2018-Apr-19 11:30N 09°22' W 079°57'0 0.0
2018-Apr-19 11:00N 09°22' W 079°57'0 0.0
2018-Apr-19 10:30N 09°22' W 079°57'0 0.0
2018-Apr-19 09:59N 09°22' W 079°57'0 0.0
2018-Apr-19 09:30N 09°22' W 079°57'0 0.0
2018-Apr-19 09:00N 09°22' W 079°57'0 0.0
2018-Apr-19 08:30N 09°22' W 079°57'0 0.0
2018-Apr-19 08:00N 09°22' W 079°57'0 0.0
2018-Apr-19 07:30N 09°22' W 079°57'0 0.0
2018-Apr-19 07:00N 09°22' W 079°57'0 0.0
2018-Apr-19 06:30N 09°22' W 079°57'0 0.0
2018-Apr-19 06:00N 09°22' W 079°57'0 0.0
2018-Apr-19 05:30N 09°22' W 079°57'0 0.0
2018-Apr-19 05:00N 09°22' W 079°57'0 0.0
2018-Apr-19 04:30N 09°22' W 079°57'0 0.0
2018-Apr-19 04:00N 09°22' W 079°57'0 0.0
2018-Apr-19 03:30N 09°22' W 079°57'0 0.0
2018-Apr-19 03:00N 09°22' W 079°57'0 0.0
2018-Apr-19 02:30N 09°22' W 079°57'0 0.0
2018-Apr-19 02:00N 09°22' W 079°57'0 0.0
2018-Apr-19 01:30N 09°22' W 079°57'0 0.0
2018-Apr-19 01:00N 09°22' W 079°57'0 0.0
2018-Apr-19 00:30N 09°22' W 079°57'0 0.0
2018-Apr-19 00:00N 09°22' W 079°57'0 0.0
2018-Apr-18 23:30N 09°22' W 079°57'0 0.0
2018-Apr-18 23:00N 09°22' W 079°57'0 0.0
2018-Apr-18 22:30N 09°22' W 079°57'0 0.0
2018-Apr-18 22:00N 09°22' W 079°57'0 0.0
2018-Apr-18 21:30N 09°22' W 079°57'0 0.0
2018-Apr-18 21:00N 09°22' W 079°57'0 0.0
2018-Apr-18 20:30N 09°22' W 079°57'0 0.0
2018-Apr-18 20:00N 09°22' W 079°57'0 0.0
2018-Apr-18 19:30N 09°22' W 079°57'0 0.0
2018-Apr-18 19:00N 09°22' W 079°57'0 0.0
2018-Apr-18 18:30N 09°22' W 079°57'0 0.0
2018-Apr-18 18:00N 09°22' W 079°57'0 0.0
2018-Apr-18 17:30N 09°22' W 079°57'0 0.0
2018-Apr-18 17:00N 09°22' W 079°57'0 0.0
2018-Apr-18 16:30N 09°22' W 079°57'0 0.0
2018-Apr-18 16:00N 09°22' W 079°57'0 0.0
2018-Apr-18 15:30N 09°22' W 079°57'0 0.0
2018-Apr-18 15:00N 09°22' W 079°57'0 0.0
2018-Apr-18 14:30N 09°22' W 079°57'0 0.0
2018-Apr-18 14:00N 09°22' W 079°57'0 0.0
2018-Apr-18 13:30N 09°22' W 079°57'0 0.0
2018-Apr-18 13:00N 09°22' W 079°57'0 0.0
2018-Apr-18 12:30N 09°22' W 079°57'0 0.0
2018-Apr-18 12:00N 09°22' W 079°57'0 0.0
2018-Apr-18 11:30N 09°22' W 079°57'0 0.0
2018-Apr-18 11:00N 09°22' W 079°57'0 0.0
2018-Apr-18 10:30N 09°22' W 079°57'0 0.0
2018-Apr-18 10:00N 09°22' W 079°57'0 0.0
2018-Apr-18 09:30N 09°22' W 079°57'0 0.0
2018-Apr-18 09:00N 09°22' W 079°57'0 0.0
2018-Apr-18 08:30N 09°22' W 079°57'0 0.0
2018-Apr-18 08:00N 09°22' W 079°57'0 0.0
2018-Apr-18 07:30N 09°22' W 079°57'0 0.0
2018-Apr-18 07:00N 09°22' W 079°57'0 0.0
2018-Apr-18 06:30N 09°22' W 079°57'0 0.0
2018-Apr-18 06:00N 09°22' W 079°57'0 0.0
2018-Apr-18 05:30N 09°22' W 079°57'0 0.0
2018-Apr-18 05:00N 09°22' W 079°57'0 0.0
2018-Apr-18 04:30N 09°22' W 079°57'0 0.0
2018-Apr-18 04:00N 09°22' W 079°57'0 0.0
2018-Apr-18 03:28N 09°22' W 079°57'0 0.0
2018-Apr-18 03:00N 09°22' W 079°57'0 0.0
2018-Apr-18 02:30N 09°22' W 079°57'0 0.0
2018-Apr-18 02:00N 09°22' W 079°57'0 0.0
2018-Apr-18 01:30N 09°22' W 079°57'0 0.0
2018-Apr-18 01:00N 09°22' W 079°57'0 0.0
2018-Apr-18 00:30N 09°22' W 079°57'0 0.0
2018-Apr-18 00:00N 09°22' W 079°57'0 0.0
2018-Apr-17 23:30N 09°22' W 079°57'0 0.0
2018-Apr-17 23:00N 09°22' W 079°57'0 0.0
2018-Apr-17 22:30N 09°22' W 079°57'0 0.0
2018-Apr-17 22:00N 09°22' W 079°57'0 0.0
2018-Apr-17 21:30N 09°22' W 079°57'0 0.0
2018-Apr-17 21:00N 09°22' W 079°57'0 0.0
2018-Apr-17 20:30N 09°22' W 079°57'0 0.0
2018-Apr-17 20:00N 09°22' W 079°57'0 0.0
2018-Apr-17 19:30N 09°22' W 079°57'0 0.0
2018-Apr-17 19:00N 09°22' W 079°57'0 0.0
2018-Apr-17 18:30N 09°22' W 079°57'0 0.0
2018-Apr-17 18:00N 09°22' W 079°57'0 0.0
2018-Apr-17 17:30N 09°22' W 079°57'0 0.0
2018-Apr-17 17:00N 09°22' W 079°57'0 0.0
2018-Apr-17 16:30N 09°22' W 079°57'0 0.0
2018-Apr-17 16:00N 09°22' W 079°57'0 0.0
2018-Apr-17 15:30N 09°22' W 079°57'0 0.0
2018-Apr-17 15:00N 09°22' W 079°57'0 0.0
2018-Apr-17 14:30N 09°22' W 079°57'0 0.0
2018-Apr-17 14:00N 09°22' W 079°57'0 0.0
2018-Apr-17 13:30N 09°22' W 079°57'0 0.0
2018-Apr-17 13:00N 09°22' W 079°57'0 0.0
2018-Apr-17 12:30N 09°22' W 079°57'0 0.0
2018-Apr-17 12:00N 09°22' W 079°57'0 0.0
2018-Apr-17 11:30N 09°22' W 079°57'0 0.0
2018-Apr-17 11:00N 09°22' W 079°57'0 0.0
2018-Apr-17 10:30N 09°22' W 079°57'0 0.0
2018-Apr-17 10:00N 09°22' W 079°57'0 0.0
2018-Apr-17 09:30N 09°22' W 079°57'0 0.0
2018-Apr-17 09:00N 09°22' W 079°57'0 0.0
2018-Apr-17 08:30N 09°22' W 079°57'0 0.0
2018-Apr-17 08:00N 09°22' W 079°57'0 0.0
2018-Apr-17 07:30N 09°22' W 079°57'0 0.0
2018-Apr-17 07:00N 09°22' W 079°57'0 0.0
2018-Apr-17 06:30N 09°22' W 079°57'0 0.0
2018-Apr-17 06:00N 09°22' W 079°57'0 0.0
2018-Apr-17 05:30N 09°22' W 079°57'0 0.0
2018-Apr-17 05:00N 09°22' W 079°57'0 0.0
2018-Apr-17 04:30N 09°22' W 079°57'0 0.0
2018-Apr-17 04:00N 09°22' W 079°57'0 0.0
2018-Apr-17 03:30N 09°22' W 079°57'0 0.0
2018-Apr-17 03:00N 09°22' W 079°57'0 0.0
2018-Apr-17 02:30N 09°22' W 079°57'0 0.0
2018-Apr-17 02:00N 09°22' W 079°57'0 0.0
2018-Apr-17 01:30N 09°22' W 079°57'0 0.0
2018-Apr-17 01:00N 09°22' W 079°57'0 0.0
2018-Apr-17 00:30N 09°22' W 079°57'0 0.0
2018-Apr-17 00:00N 09°22' W 079°57'0 0.0
2018-Apr-16 23:30N 09°22' W 079°57'0 0.0
2018-Apr-16 23:00N 09°22' W 079°57'0 0.0
2018-Apr-16 22:30N 09°22' W 079°57'0 0.0
2018-Apr-16 22:00N 09°22' W 079°57'0 0.0
2018-Apr-16 21:30N 09°22' W 079°57'0 0.0
2018-Apr-16 21:00N 09°22' W 079°57'0 0.0
2018-Apr-16 20:30N 09°22' W 079°57'0 0.0
2018-Apr-16 20:00N 09°22' W 079°57'0 0.0
2018-Apr-16 19:30N 09°22' W 079°57'0 0.0
2018-Apr-16 19:00N 09°22' W 079°57'0 0.0
2018-Apr-16 18:30N 09°22' W 079°57'0 0.0
2018-Apr-16 18:00N 09°22' W 079°57'0 0.0
2018-Apr-16 17:29N 09°22' W 079°57'0 0.0
2018-Apr-16 17:00N 09°22' W 079°57'0 0.0
2018-Apr-16 16:30N 09°22' W 079°57'0 0.0
2018-Apr-16 16:00N 09°22' W 079°57'0 0.0
2018-Apr-16 15:30N 09°22' W 079°57'0 0.0
2018-Apr-16 15:00N 09°22' W 079°57'0 0.2
2018-Apr-16 14:30N 09°22' W 079°57'2 4.4
2018-Apr-16 14:00N 09°24' W 079°55'4 8.2
2018-Apr-16 13:30N 09°28' W 079°55'1312.8
2018-Apr-16 12:28N 09°41' W 079°51'  
2018-Apr-12 18:45N 16°45' W 062°35'312.0
2018-Apr-12 18:28N 16°46' W 062°31'612.2
2018-Apr-12 18:00N 16°48' W 062°26'612.2
2018-Apr-12 17:30N 16°51' W 062°20'612.2
2018-Apr-12 17:00N 16°53' W 062°14'612.7
2018-Apr-12 16:30N 16°55' W 062°08'612.7
2018-Apr-12 16:00N 16°56' W 062°01'612.5
2018-Apr-12 15:30N 16°58' W 061°55'612.3
2018-Apr-12 15:00N 16°59' W 061°49'3 4.7
2018-Apr-12 14:28N 17°01' W 061°46'0 0.0
2018-Apr-12 13:58N 17°01' W 061°46'0 0.0
2018-Apr-12 13:28N 17°01' W 061°46'0 0.0
2018-Apr-12 12:58N 17°01' W 061°46'0 0.0
2018-Apr-12 12:28N 17°01' W 061°46'0 0.0
2018-Apr-12 11:58N 17°01' W 061°46'0 0.0
2018-Apr-12 11:28N 17°01' W 061°46'0 0.0
2018-Apr-12 11:01N 17°01' W 061°46'0 0.0
2018-Apr-12 10:30N 17°01' W 061°46'0 0.0
2018-Apr-12 10:00N 17°01' W 061°46'0 0.0
2018-Apr-12 09:30N 17°01' W 061°46'0 0.0
2018-Apr-12 09:00N 17°01' W 061°46'0 0.0
2018-Apr-12 08:30N 17°01' W 061°46'0 0.0
2018-Apr-12 08:00N 17°01' W 061°46'0 0.0
2018-Apr-12 07:30N 17°01' W 061°46'0 0.0
2018-Apr-12 07:00N 17°01' W 061°46'0 0.0
2018-Apr-12 06:30N 17°01' W 061°46'0 0.0
2018-Apr-12 06:00N 17°01' W 061°46'0 0.0
2018-Apr-12 05:30N 17°01' W 061°46'0 0.0
2018-Apr-12 05:00N 17°01' W 061°46'0 0.0
2018-Apr-12 04:30N 17°01' W 061°46'0 0.0
2018-Apr-12 04:00N 17°01' W 061°46'0 0.0
2018-Apr-12 03:30N 17°01' W 061°46'0 0.0
2018-Apr-12 03:00N 17°01' W 061°46'0 0.0
2018-Apr-12 02:30N 17°01' W 061°46'0 0.0
2018-Apr-12 02:00N 17°01' W 061°46'0 0.0
2018-Apr-12 01:30N 17°01' W 061°46'0 0.0
2018-Apr-12 01:00N 17°01' W 061°46'0 0.0
2018-Apr-12 00:30N 17°01' W 061°46'0 0.0
2018-Apr-12 00:00N 17°01' W 061°46'0 0.0
2018-Apr-11 23:30N 17°01' W 061°46'0 0.0
2018-Apr-11 23:00N 17°01' W 061°46'0 0.0
2018-Apr-11 22:30N 17°01' W 061°46'  

Dump ship's entire track history